Cleora, South Carolina
Current Conditions -  °F | °C
As of 5:55 AM on Thursday 27 Nov 2014 (Local Time) from KAIK Reporting Station
Clear Clear  
Wind Chill: 37°   Ceiling: Unl
Heat Index: 43°   Visibility: 10mi
Dew Point: 32°   Wind: 10mph
Humidity: 66%   Direction: 260°W
Pressure: 30.09"   Gusts: 18mph
Location:  33.8233°N, 82.0147°W
Report Text: KAIK 271055Z AUTO 26009G16KT 10SM CLR 06/00 A3009 RMK AO2 PNO
Loading
Personal Weather Stations






























Interactive Weather Map New forecast layout! Learn more

10-Day Weather Forecast

Advertisements
Track Severe Weather on mobile